Terminal Aerodrome Forecast
Issued by NWS

Home | Current Version | Previous Version | Graphics & Text | Print | Product List | Glossary On
Versions: 1 2 3 4 5 6 7 8 9 10 11 12 13 14
000
FTUS43 KMPX 170520
TAFAXN
TAF
KAXN 170520Z 1706/1806 14015G24KT P6SM SCT012 OVC140
      TEMPO 1709/1713 BKN012 OVC140
     FM171300 15010KT P6SM BKN012 OVC140
     FM171600 25008KT P6SM OVC012
     FM171900 33008KT P6SM OVC012
      TEMPO 1719/1723 -SHSN
     FM172300 34010KT P6SM BKN020=

USA.gov is the U.S. government's official web portal to all federal, state and local government web resources and services.